Time;durP1;ratioP1;P1;durP2;ratioP2;P2;SDS_P1;SDS_P2;PMS_P1;PMS_P2;Temp;Humidity;BMP_temperature;BMP_pressure;BME280_temperature;BME280_humidity;BME280_pressure;Samples;Min_cycle;Max_cycle;Signal;HPM_P1;HPM_P2
2023/04/09 00:00:16;;;;;;;30.92;20.27;;;;;;;9.72;81.59;102460.41;4987404;28;20058;-70
2023/04/09 00:02:44;;;;;;;29.67;20.08;;;;;;;9.65;81.89;102458.69;4970566;28;20101;-70
2023/04/09 00:05:11;;;;;;;30.80;21.15;;;;;;;9.61;81.91;102465.69;4966254;28;20098;-71
2023/04/09 00:07:38;;;;;;;29.80;20.40;;;;;;;9.61;82.01;102463.03;4985237;28;20136;-71
2023/04/09 00:10:06;;;;;;;29.98;20.40;;;;;;;9.59;82.22;102456.94;4968764;28;20043;-70
2023/04/09 00:12:33;;;;;;;30.98;21.92;;;;;;;9.60;82.19;102463.06;4987452;28;20047;-71
2023/04/09 00:15:00;;;;;;;33.63;21.88;;;;;;;9.58;82.01;102463.06;4983859;28;20041;-70
2023/04/09 00:17:27;;;;;;;34.35;22.90;;;;;;;9.59;82.12;102462.19;4969873;28;21165;-70
2023/04/09 00:19:55;;;;;;;33.00;22.00;;;;;;;9.57;82.19;102457.78;4970332;28;20077;-70
2023/04/09 00:22:22;;;;;;;33.97;22.88;;;;;;;9.56;82.13;102456.91;4987132;28;20042;-70
2023/04/09 00:24:49;;;;;;;32.22;21.35;;;;;;;9.57;82.47;102460.41;4984122;28;20049;-70
2023/04/09 00:27:16;;;;;;;33.22;22.35;;;;;;;9.57;82.17;102452.50;4988055;28;20042;-70
2023/04/09 00:29:43;;;;;;;34.00;22.73;;;;;;;9.57;82.46;102455.16;4986349;28;20031;-70
2023/04/09 00:32:10;;;;;;;36.40;23.45;;;;;;;9.55;82.58;102449.03;4985014;28;20061;-70
2023/04/09 00:34:37;;;;;;;33.10;22.05;;;;;;;9.59;82.14;102450.75;4969384;28;20590;-70
2023/04/09 00:37:04;;;;;;;32.20;22.42;;;;;;;9.56;82.31;102453.41;4969172;28;20045;-70
2023/04/09 00:39:32;;;;;;;33.50;22.10;;;;;;;9.58;82.40;102446.38;4968496;28;20133;-70
2023/04/09 00:42:03;;;;;;;32.53;21.08;;;;;;;9.58;82.17;102441.09;4966805;28;20070;-70
2023/04/09 00:44:30;;;;;;;31.33;21.45;;;;;;;9.55;82.08;102444.63;4966886;28;20513;-70
2023/04/09 00:46:59;;;;;;;33.45;22.10;;;;;;;9.55;82.48;102441.13;4968146;28;20047;-70
2023/04/09 00:49:26;;;;;;;31.45;21.92;;;;;;;9.54;82.06;102442.00;4966323;28;20039;-70
2023/04/09 00:51:54;;;;;;;32.10;21.20;;;;;;;9.50;82.37;102435.88;4985107;28;20122;-70
2023/04/09 00:54:21;;;;;;;29.20;20.75;;;;;;;9.48;82.21;102440.25;4984237;28;20043;-70
2023/04/09 00:56:48;;;;;;;30.55;20.52;;;;;;;9.44;82.59;102433.22;4987419;28;20047;-70
2023/04/09 00:59:15;;;;;;;28.35;20.00;;;;;;;9.43;82.57;102435.00;4982587;28;20070;-70
2023/04/09 01:01:42;;;;;;;30.15;20.27;;;;;;;9.44;82.52;102434.13;4987877;28;20038;-69
2023/04/09 01:04:10;;;;;;;30.38;20.02;;;;;;;9.43;82.45;102431.47;4985978;28;20121;-70
2023/04/09 01:06:52;;;;;;;30.10;19.98;;;;;;;9.40;82.84;102434.13;4969304;28;20153;-69
2023/04/09 01:09:50;;;;;;;31.48;21.13;;;;;;;9.41;83.00;102427.97;4984206;28;20786;-70
2023/04/09 01:12:42;;;;;;;31.95;22.17;;;;;;;9.40;82.89;102426.22;4983518;28;20061;-70
2023/04/09 01:15:16;;;;;;;31.77;21.10;;;;;;;9.38;82.97;102425.34;4985291;28;20556;-70
2023/04/09 01:17:53;;;;;;;31.70;21.75;;;;;;;9.41;82.91;102425.34;4969247;28;20046;-70
2023/04/09 01:20:40;;;;;;;33.63;21.60;;;;;;;9.38;82.85;102423.56;4986324;28;20582;-70
2023/04/09 01:23:33;;;;;;;34.45;22.80;;;;;;;9.40;82.62;102418.31;4960934;28;20566;-70
2023/04/09 01:26:26;;;;;;;37.38;23.55;;;;;;;9.36;83.01;102419.19;4977505;28;20097;-70
2023/04/09 01:28:56;;;;;;;34.15;23.73;;;;;;;9.35;82.93;102420.06;4952838;28;20166;-70
2023/04/09 01:31:30;;;;;;;36.38;23.65;;;;;;;9.35;83.13;102417.44;4969649;28;20546;-70
2023/04/09 01:33:59;;;;;;;;;;;;;;;9.33;83.00;102414.81;4983653;28;20521;-70
2023/04/09 01:36:31;;;;;;;39.10;24.65;;;;;;;9.29;83.19;102413.03;4983205;28;19933;-70
2023/04/09 01:39:01;;;;;;;40.20;25.88;;;;;;;9.28;83.31;102419.19;4962822;28;20570;-70
2023/04/09 01:41:33;;;;;;;37.70;25.25;;;;;;;9.30;82.89;102420.06;4984585;28;20065;-70
2023/04/09 01:44:03;;;;;;;37.72;25.13;;;;;;;9.26;83.34;102413.94;4950495;28;20851;-69
2023/04/09 01:46:32;;;;;;;40.25;25.90;;;;;;;9.25;83.18;102417.44;4984841;28;20545;-70
2023/04/09 01:49:01;;;;;;;42.00;26.58;;;;;;;9.24;83.14;102410.41;4985954;28;20039;-70
2023/04/09 01:51:32;;;;;;;42.08;25.55;;;;;;;9.25;83.25;102424.47;4986430;28;20129;-70
2023/04/09 01:53:59;;;;;;;39.67;25.50;;;;;;;9.18;83.32;102415.69;4950135;28;20046;-70
2023/04/09 01:56:26;;;;;;;39.08;25.33;;;;;;;9.20;83.55;102407.78;4984539;28;20087;-70
2023/04/09 01:58:54;;;;;;;37.55;24.92;;;;;;;9.21;83.57;102420.91;4968437;28;20050;-70
2023/04/09 02:01:32;;;;;;;36.75;24.90;;;;;;;9.20;83.63;102410.41;4952156;28;20048;-70
2023/04/09 02:04:03;;;;;;;38.53;25.27;;;;;;;9.19;83.63;102406.91;4955329;28;20044;-71
2023/04/09 02:06:43;;;;;;;38.50;23.70;;;;;;;9.17;83.76;102406.03;4962788;28;20535;-70
2023/04/09 02:09:11;;;;;;;35.58;23.90;;;;;;;9.14;83.54;102409.53;4945438;28;20058;-69
2023/04/09 02:11:42;;;;;;;37.63;24.52;;;;;;;9.12;83.53;102410.41;4954720;28;20043;-70
2023/04/09 02:14:11;;;;;;;38.55;24.98;;;;;;;9.12;83.65;102410.41;4948147;28;20643;-70
2023/04/09 02:16:39;;;;;;;36.50;24.88;;;;;;;9.12;83.81;102407.75;4943789;28;20151;-70
2023/04/09 02:19:07;;;;;;;39.45;25.55;;;;;;;9.11;83.57;102413.91;4946249;28;20118;-70
2023/04/09 02:21:34;;;;;;;37.33;23.65;;;;;;;9.09;84.28;102410.41;4946840;28;20052;-70
2023/04/09 02:24:01;;;;;;;37.80;23.98;;;;;;;9.09;83.41;102407.78;4949057;28;20051;-70
2023/04/09 02:26:28;;;;;;;38.97;25.45;;;;;;;9.10;83.71;102414.81;4944219;28;20532;-70
2023/04/09 02:28:56;;;;;;;36.78;25.58;;;;;;;9.08;83.45;102413.91;4946038;28;20119;-70
2023/04/09 02:31:23;;;;;;;36.35;24.40;;;;;;;9.07;83.76;102412.16;4944575;28;20119;-70
2023/04/09 02:33:52;;;;;;;39.45;25.38;;;;;;;9.06;83.58;102411.25;4946237;28;20051;-70
2023/04/09 02:36:20;;;;;;;48.15;25.42;;;;;;;9.08;83.34;102414.78;4947614;28;20040;-70
2023/04/09 02:38:47;;;;;;;40.72;25.15;;;;;;;9.06;83.28;102411.25;4944992;28;20138;-70
2023/04/09 02:41:15;;;;;;;41.03;25.20;;;;;;;9.02;83.09;102410.38;4937146;28;20031;-70
2023/04/09 02:43:42;;;;;;;37.75;25.00;;;;;;;8.99;83.23;102409.50;4950870;28;20032;-70
2023/04/09 02:46:09;;;;;;;38.20;24.38;;;;;;;8.97;83.33;102409.53;4942541;28;20515;-71
2023/04/09 02:48:36;;;;;;;37.38;24.35;;;;;;;8.95;82.88;102395.47;4950031;28;20539;-70
2023/04/09 02:51:07;;;;;;;36.15;23.23;;;;;;;8.90;82.92;102401.59;4941710;28;20114;-69
2023/04/09 02:53:34;;;;;;;35.90;22.92;;;;;;;8.85;82.77;102399.84;4955369;28;20039;-69
2023/04/09 02:56:01;;;;;;;37.22;22.48;;;;;;;8.86;82.42;102395.47;4966052;28;20130;-70
2023/04/09 02:58:28;;;;;;;32.85;21.10;;;;;;;8.81;82.20;102391.94;4957567;28;20051;-69
2023/04/09 03:00:55;;;;;;;32.42;20.83;;;;;;;8.76;82.43;102397.19;4963013;28;20052;-70
2023/04/09 03:03:22;;;;;;;32.08;21.88;;;;;;;8.76;82.23;102397.19;4950611;28;20134;-69
2023/04/09 03:05:49;;;;;;;33.20;21.95;;;;;;;8.73;82.23;102401.56;4962265;28;20044;-69
2023/04/09 03:08:16;;;;;;;33.78;20.15;;;;;;;8.71;81.70;102393.69;4969815;28;20036;-69
2023/04/09 03:10:43;;;;;;;33.53;21.05;;;;;;;8.66;81.58;102400.66;4966202;28;20043;-70
2023/04/09 03:13:10;;;;;;;30.38;19.52;;;;;;;8.62;81.55;102394.53;4968988;28;20054;-70
2023/04/09 03:15:37;;;;;;;30.75;20.20;;;;;;;8.55;81.32;102393.63;4967405;28;20039;-70
2023/04/09 03:18:05;;;;;;;32.97;20.50;;;;;;;8.50;81.20;102394.47;4968824;28;20511;-70
2023/04/09 03:20:35;;;;;;;30.95;19.73;;;;;;;8.43;81.09;102398.84;4969432;28;20119;-71
2023/04/09 03:23:03;;;;;;;31.38;19.75;;;;;;;8.37;81.13;102397.06;4968939;28;20186;-70
2023/04/09 03:25:38;;;;;;;29.85;19.33;;;;;;;8.27;81.50;102391.75;4967662;28;20050;-70
2023/04/09 03:28:15;;;;;;;30.63;19.73;;;;;;;8.19;81.83;102395.22;4967973;28;20040;-70
2023/04/09 03:30:48;;;;;;;32.08;20.58;;;;;;;8.08;82.15;102391.66;4965977;28;20158;-70
2023/04/09 03:33:15;;;;;;;31.55;20.08;;;;;;;7.98;82.32;102392.50;4969650;28;20043;-70
2023/04/09 03:35:49;;;;;;;32.03;21.00;;;;;;;7.89;82.62;102383.69;4969146;28;20056;-70
2023/04/09 03:38:22;;;;;;;34.33;21.58;;;;;;;7.78;83.02;102378.38;4966826;28;20035;-70
2023/04/09 03:40:49;;;;;;;31.45;21.52;;;;;;;7.72;83.46;102385.34;4951160;28;20043;-70
2023/04/09 03:43:16;;;;;;;34.40;21.75;;;;;;;7.65;83.66;102380.91;4962963;28;20514;-69
2023/04/09 03:45:49;;;;;;;36.88;22.77;;;;;;;7.53;83.75;102379.09;4979455;28;20531;-69
2023/04/09 03:48:22;;;;;;;38.33;23.80;;;;;;;7.44;83.99;102378.16;4967815;28;20116;-69
2023/04/09 03:50:52;;;;;;;38.53;23.48;;;;;;;7.40;84.83;102376.38;4967926;28;20543;-69
2023/04/09 03:53:27;;;;;;;38.40;22.67;;;;;;;7.32;85.15;102378.06;4953432;28;20050;-68
2023/04/09 03:56:01;;;;;;;36.13;22.57;;;;;;;7.25;85.29;102368.41;4966942;28;20499;-68
2023/04/09 03:58:29;;;;;;;36.53;22.48;;;;;;;7.20;86.08;102375.34;4966973;28;20047;-68
2023/04/09 04:00:59;;;;;;;36.72;21.42;;;;;;;7.12;86.07;102367.44;4956846;28;20054;-69
2023/04/09 04:03:36;;;;;;;33.30;20.90;;;;;;;7.07;86.20;102376.97;4968061;28;20051;-70
2023/04/09 04:06:11;;;;;;;34.22;21.90;;;;;;;6.99;86.49;102371.66;4968125;28;20110;-68
2023/04/09 04:08:49;;;;;;;35.60;23.33;;;;;;;6.92;86.87;102370.72;4965535;28;20544;-70
2023/04/09 04:11:20;;;;;;;37.75;23.23;;;;;;;6.88;87.46;102368.94;4966309;28;20841;-70
2023/04/09 04:13:51;;;;;;;34.50;22.20;;;;;;;6.81;87.71;102370.63;4966041;28;20039;-69
2023/04/09 04:16:19;;;;;;;37.25;22.60;;;;;;;6.77;88.18;102365.34;4966622;28;20546;-70
2023/04/09 04:18:46;;;;;;;35.80;22.02;;;;;;;6.67;88.06;102365.25;4964626;28;20071;-70
2023/04/09 04:21:16;;;;;;;39.92;23.45;;;;;;;6.63;88.40;102363.44;4952620;28;20047;-70
2023/04/09 04:23:48;;;;;;;37.85;23.80;;;;;;;6.59;88.67;102360.78;4950209;28;20118;-70
2023/04/09 04:26:18;;;;;;;35.92;23.38;;;;;;;6.51;88.52;102360.72;4967881;28;20129;-69
2023/04/09 04:28:46;;;;;;;40.53;24.67;;;;;;;6.46;88.83;102367.63;4963636;28;20539;-70
2023/04/09 04:31:24;;;;;;;39.03;24.45;;;;;;;6.40;89.23;102364.97;4965252;28;20122;-71
2023/04/09 04:33:52;;;;;;;39.92;23.70;;;;;;;6.34;89.26;102368.38;4963620;28;20099;-71
2023/04/09 04:36:19;;;;;;;38.03;24.25;;;;;;;6.30;89.58;102364.84;4964638;28;20542;-71
2023/04/09 04:38:49;;;;;;;41.33;26.00;;;;;;;6.24;89.87;102363.91;4961339;28;20130;-70
2023/04/09 04:41:30;;;;;;;41.55;24.33;;;;;;;6.20;90.01;102371.69;4964913;28;20075;-69
2023/04/09 04:44:09;;;;;;;40.63;25.95;;;;;;;6.15;90.20;102376.03;4963133;28;20071;-70
2023/04/09 04:46:37;;;;;;;42.17;26.17;;;;;;;6.13;90.49;102379.47;4956867;28;20042;-68
2023/04/09 04:49:04;;;;;;;39.78;25.63;;;;;;;6.06;90.76;102374.16;4961831;28;20142;-69
2023/04/09 04:51:39;;;;;;;45.22;26.60;;;;;;;6.04;90.85;102378.47;4967150;28;20047;-69
2023/04/09 04:54:09;;;;;;;43.30;26.48;;;;;;;6.00;91.02;102381.03;4973514;28;20047;-69
2023/04/09 04:56:37;;;;;;;42.33;27.00;;;;;;;5.97;91.07;102379.22;4976319;28;20040;-69
2023/04/09 04:59:24;;;;;;;43.30;26.80;;;;;;;5.90;91.19;102378.25;4954714;28;20063;-69
2023/04/09 05:01:57;;;;;;;44.92;26.50;;;;;;;5.86;90.82;102384.31;4994164;28;20596;-69
2023/04/09 05:04:26;;;;;;;44.05;27.52;;;;;;;5.85;90.99;102379.06;4976901;28;20147;-69
2023/04/09 05:06:55;;;;;;;44.38;27.83;;;;;;;5.83;91.06;102380.78;4992670;28;20146;-69
2023/04/09 05:09:24;;;;;;;47.25;28.30;;;;;;;5.83;91.16;102386.91;4977017;28;20043;-69
2023/04/09 05:12:08;;;;;;;43.35;27.63;;;;;;;5.80;91.07;102379.00;4970216;28;20098;-69
2023/04/09 05:14:38;;;;;;;44.55;26.40;;;;;;;5.96;90.98;102381.81;4991091;28;20515;-70
2023/04/09 05:17:05;;;;;;;44.72;27.35;;;;;;;6.33;89.95;102377.09;4992062;28;20058;-70
2023/04/09 05:19:40;;;;;;;44.72;25.20;;;;;;;6.70;88.65;102372.25;4992849;28;20042;-68
2023/04/09 05:22:11;;;;;;;42.55;25.30;;;;;;;7.04;87.38;102371.69;4991212;28;20038;-69
2023/04/09 05:24:44;;;;;;;37.60;24.02;;;;;;;7.40;85.77;102375.50;4993276;28;20553;-68
2023/04/09 05:27:11;;;;;;;42.92;25.02;;;;;;;7.56;84.42;102372.13;4975891;28;20582;-69
2023/04/09 05:29:40;;;;;;;42.40;24.40;;;;;;;7.30;84.76;102375.44;4993860;28;20050;-69
2023/04/09 05:32:08;;;;;;;35.75;22.48;;;;;;;6.95;85.64;102373.38;4975722;28;20532;-68
2023/04/09 05:34:38;;;;;;;38.53;23.83;;;;;;;6.74;86.12;102376.69;4993475;28;20048;-69
2023/04/09 05:37:05;;;;;;;36.47;22.95;;;;;;;6.59;86.85;102376.50;4995964;28;20030;-68
2023/04/09 05:39:37;;;;;;;39.72;24.15;;;;;;;6.48;87.20;102376.41;4974973;28;20051;-68
2023/04/09 05:42:04;;;;;;;41.50;25.27;;;;;;;6.41;87.70;102366.72;4991047;28;20039;-69
2023/04/09 05:45:01;;;;;;;39.13;24.27;;;;;;;6.35;88.05;102373.63;4986885;28;20661;-69
2023/04/09 05:47:29;;;;;;;40.80;24.55;;;;;;;6.31;88.30;102366.59;4973690;28;20569;-68
2023/04/09 05:50:04;;;;;;;;;;;;;;;6.32;88.41;102370.97;4967840;28;20355;-69
2023/04/09 05:52:32;;;;;;;38.70;24.85;;;;;;;6.32;88.50;102372.72;4959084;28;20429;-69
2023/04/09 05:55:02;;;;;;;39.20;24.52;;;;;;;6.35;88.59;102378.00;4974540;28;20445;-67
2023/04/09 05:57:41;;;;;;;42.15;26.13;;;;;;;6.36;88.77;102377.13;4974292;28;20035;-70
2023/04/09 06:00:09;;;;;;;39.88;25.75;;;;;;;6.39;88.79;102381.53;4957927;28;20110;-70
2023/04/09 06:02:47;;;;;;;44.80;26.33;;;;;;;6.45;88.62;102382.50;4976255;28;20053;-70
2023/04/09 06:05:14;;;;;;;42.00;26.30;;;;;;;6.49;88.68;102383.41;4994996;28;20074;-70
2023/04/09 06:07:42;;;;;;;40.50;25.92;;;;;;;6.54;88.60;102376.44;4988288;28;20049;-71
2023/04/09 06:10:10;;;;;;;45.03;27.40;;;;;;;6.58;88.36;102379.97;4990378;28;20914;-69
2023/04/09 06:12:38;;;;;;;42.83;26.38;;;;;;;6.64;88.17;102372.22;4976650;28;20038;-68
2023/04/09 06:15:09;;;;;;;42.58;26.52;;;;;;;6.70;88.22;102377.50;4991623;28;20074;-68
2023/04/09 06:17:36;;;;;;;42.03;25.98;;;;;;;6.76;87.92;102372.34;4976546;28;20680;-67
2023/04/09 06:20:05;;;;;;;41.47;25.33;;;;;;;6.79;87.63;102371.47;4993101;28;20047;-69
2023/04/09 06:22:32;;;;;;;41.97;25.40;;;;;;;6.87;87.78;102377.69;4991738;28;20240;-69
2023/04/09 06:24:59;;;;;;;41.67;26.25;;;;;;;6.92;87.34;102381.22;4991479;28;20046;-69
2023/04/09 06:27:26;;;;;;;38.47;24.63;;;;;;;6.99;87.24;102390.91;4977614;28;20038;-68
2023/04/09 06:29:56;;;;;;;39.85;25.10;;;;;;;7.05;87.24;102390.09;4973849;28;20043;-69
2023/04/09 06:32:23;;;;;;;40.30;25.10;;;;;;;7.14;86.58;102392.78;4988702;28;20035;-69
2023/04/09 06:34:50;;;;;;;38.17;25.10;;;;;;;7.17;86.77;102399.81;4990666;28;20098;-70
2023/04/09 06:37:17;;;;;;;38.25;23.85;;;;;;;7.21;85.92;102398.09;4975714;28;20047;-69
2023/04/09 06:39:44;;;;;;;38.33;25.20;;;;;;;7.27;86.27;102395.53;4982709;28;21003;-69
2023/04/09 06:42:27;;;;;;;42.20;25.20;;;;;;;7.37;86.21;102397.38;4969913;28;20042;-71
2023/04/09 06:44:58;;;;;;;38.75;24.17;;;;;;;7.50;85.94;102395.69;4968382;28;20540;-70
2023/04/09 06:47:25;;;;;;;35.58;23.70;;;;;;;7.57;85.48;102394.00;4967009;28;20223;-71
2023/04/09 06:49:52;;;;;;;38.05;24.15;;;;;;;7.64;nan;102400.16;4968284;28;20074;-71
2023/04/09 06:52:19;;;;;;;39.25;24.10;;;;;;;7.71;84.38;102401.97;4974533;28;20043;-71
2023/04/09 06:54:46;;;;;;;37.30;23.15;;;;;;;7.77;84.36;102402.91;4971360;28;20039;-71
2023/04/09 06:57:13;;;;;;;34.15;22.70;;;;;;;7.85;84.77;102399.44;4991335;28;20034;-70
2023/04/09 06:59:40;;;;;;;34.25;21.75;;;;;;;7.97;83.76;102415.25;4991400;28;20060;-69
2023/04/09 07:02:08;;;;;;;37.92;22.67;;;;;;;8.06;83.35;102404.81;4973331;28;20074;-70
2023/04/09 07:04:35;;;;;;;26.83;17.65;;;;;;;8.15;84.75;102406.56;4987436;28;20082;-72
2023/04/09 07:07:02;;;;;;;33.28;20.73;;;;;;;8.42;86.33;102406.69;4988397;28;20038;-71
2023/04/09 07:09:30;;;;;;;34.42;20.58;;;;;;;8.70;84.93;102403.31;4988590;28;20883;-72
2023/04/09 07:11:57;;;;;;;33.53;21.33;;;;;;;8.93;83.92;102401.63;4993728;28;20053;-72
2023/04/09 07:14:24;;;;;;;31.98;19.73;;;;;;;9.15;82.66;102399.88;4988289;28;20043;-72
2023/04/09 07:16:51;;;;;;;31.95;19.13;;;;;;;9.38;82.37;102405.13;4983582;28;20046;-72
2023/04/09 07:19:18;;;;;;;28.48;18.63;;;;;;;9.58;79.46;102401.63;4967094;28;20071;-72
2023/04/09 07:21:45;;;;;;;34.08;19.60;;;;;;;9.67;78.81;102412.13;4986431;28;20837;-74
2023/04/09 07:24:12;;;;;;;34.33;19.17;;;;;;;9.71;78.60;102413.91;4971187;28;20736;-72
2023/04/09 07:26:41;;;;;;;30.25;18.55;;;;;;;9.75;77.54;102406.84;4977811;28;20620;-72
2023/04/09 07:29:08;;;;;;;28.35;18.98;;;;;;;9.83;77.89;102404.22;4969446;28;20122;-72
2023/04/09 07:31:35;;;;;;;29.45;18.48;;;;;;;9.94;76.87;102411.19;4984491;28;20784;-72
2023/04/09 07:34:03;;;;;;;27.85;17.83;;;;;;;10.03;76.25;102407.69;4975488;28;20052;-72
2023/04/09 07:36:30;;;;;;;26.63;17.50;;;;;;;10.14;74.02;102401.50;4987343;28;20637;-72
2023/04/09 07:38:57;;;;;;;24.85;16.13;;;;;;;10.10;74.05;102411.19;4987057;28;20047;-72
2023/04/09 07:41:24;;;;;;;26.63;17.48;;;;;;;10.15;74.53;102405.88;4999836;28;20058;-71
2023/04/09 07:43:51;;;;;;;28.90;18.05;;;;;;;10.30;73.63;102397.03;4990900;28;20136;-72
2023/04/09 07:46:22;;;;;;;26.25;16.88;;;;;;;10.36;73.80;102400.53;5001943;28;20039;-71
2023/04/09 07:48:49;;;;;;;25.80;16.77;;;;;;;10.40;73.13;102396.16;4969229;28;20126;-71
2023/04/09 07:51:18;;;;;;;26.00;16.27;;;;;;;10.48;73.99;102399.63;4995834;28;20129;-71
2023/04/09 07:53:45;;;;;;;24.90;16.67;;;;;;;10.64;73.66;102399.53;4982073;28;20061;-71
2023/04/09 07:56:12;;;;;;;24.75;16.23;;;;;;;10.77;73.55;102397.72;4996158;28;20103;-71
2023/04/09 07:58:39;;;;;;;35.00;17.00;;;;;;;10.90;72.87;102396.72;4997408;28;20039;-71
2023/04/09 08:01:06;;;;;;;24.85;16.50;;;;;;;11.07;73.13;102399.25;4974707;28;20129;-72
2023/04/09 08:03:35;;;;;;;24.77;15.80;;;;;;;11.26;71.66;102399.09;4991842;28;21005;-72
2023/04/09 08:06:02;;;;;;;21.60;14.40;;;;;;;11.34;70.01;102397.31;4991097;28;20153;-72
2023/04/09 08:08:29;;;;;;;20.48;14.45;;;;;;;11.39;69.80;102399.91;4979214;28;20140;-72
2023/04/09 08:10:56;;;;;;;24.85;14.15;;;;;;;11.44;69.37;102400.72;5001352;28;20578;-72
2023/04/09 08:13:26;;;;;;;23.08;14.20;;;;;;;11.50;69.52;102395.38;4995705;28;20038;-73
2023/04/09 08:15:53;;;;;;;21.83;14.70;;;;;;;11.57;68.89;102391.78;4996597;28;20070;-72
2023/04/09 08:18:20;;;;;;;20.92;13.73;;;;;;;11.64;68.15;102397.91;4990420;28;20045;-73
2023/04/09 08:20:47;;;;;;;19.10;13.43;;;;;;;11.72;68.22;102393.41;4995128;28;20043;-73
2023/04/09 08:23:15;;;;;;;20.90;13.07;;;;;;;11.81;66.15;102395.94;4974069;28;20042;-72
2023/04/09 08:25:42;;;;;;;20.27;13.90;;;;;;;11.89;65.48;102395.88;4991940;28;20173;-72
2023/04/09 08:28:09;;;;;;;26.13;13.27;;;;;;;11.98;65.82;102397.56;4980189;28;20038;-72
2023/04/09 08:30:36;;;;;;;18.80;12.43;;;;;;;12.08;66.36;102395.69;4995573;28;20525;-72
2023/04/09 08:33:04;;;;;;;20.48;14.02;;;;;;;12.17;66.16;102399.97;4977974;28;20540;-72
2023/04/09 08:35:32;;;;;;;18.27;13.07;;;;;;;12.26;64.59;102400.75;4993671;28;20096;-72
2023/04/09 08:37:59;;;;;;;18.98;12.95;;;;;;;12.36;64.80;102400.63;4996377;28;20039;-72
2023/04/09 08:40:26;;;;;;;20.67;12.93;;;;;;;12.47;63.39;102404.00;4975504;28;20035;-72
2023/04/09 08:42:58;;;;;;;18.35;11.70;;;;;;;12.54;64.50;102402.16;4998200;28;20054;-72
2023/04/09 08:45:25;;;;;;;20.38;12.55;;;;;;;12.65;64.15;102399.34;4980149;28;20492;-72
2023/04/09 08:47:52;;;;;;;16.90;10.40;;;;;;;12.78;63.00;102400.06;4994413;28;20462;-72
2023/04/09 08:50:19;;;;;;;17.73;11.43;;;;;;;12.90;62.79;102399.88;4996502;28;20136;-72
2023/04/09 08:52:47;;;;;;;17.33;11.13;;;;;;;12.98;62.59;102399.75;4994745;28;20045;-72
2023/04/09 08:55:14;;;;;;;20.08;11.73;;;;;;;13.06;62.46;102403.16;4995114;28;20149;-72
2023/04/09 08:57:42;;;;;;;16.27;11.35;;;;;;;13.10;62.20;102402.22;4995285;28;20046;-72
2023/04/09 09:00:11;;;;;;;19.10;12.02;;;;;;;13.16;61.98;102382.72;4976575;28;20052;-72
2023/04/09 09:02:58;;;;;;;20.02;12.77;;;;;;;13.23;59.24;102384.34;4992766;28;20042;-72
2023/04/09 09:05:43;;;;;;;18.90;12.63;;;;;;;13.19;60.17;102387.94;4984398;28;20043;-69
2023/04/09 09:08:23;;;;;;;18.98;12.52;;;;;;;13.18;59.41;102376.50;4995910;28;20049;-68
2023/04/09 09:10:50;;;;;;;16.80;11.73;;;;;;;13.17;58.88;102379.19;4988635;28;20046;-70
2023/04/09 09:13:24;;;;;;;17.75;11.80;;;;;;;13.18;58.26;102375.59;4989621;28;20923;-70
2023/04/09 09:16:12;;;;;;;19.00;11.65;;;;;;;13.25;57.94;102371.97;4991662;28;20038;-70
2023/04/09 09:18:43;;;;;;;17.45;11.25;;;;;;;13.29;57.78;102373.66;4950343;28;20098;-70
2023/04/09 09:21:18;;;;;;;15.60;10.73;;;;;;;13.34;58.09;102370.91;4990532;28;20043;-68
2023/04/09 09:23:47;;;;;;;19.75;11.77;;;;;;;13.43;57.88;102372.56;4974133;28;20078;-68
2023/04/09 09:26:23;;;;;;;15.52;10.70;;;;;;;13.50;56.16;102375.09;4995174;28;20046;-68
2023/04/09 09:28:51;;;;;;;16.15;10.52;;;;;;;13.55;54.75;102369.69;4998542;28;20043;-68
2023/04/09 09:31:21;;;;;;;17.50;10.35;;;;;;;13.56;54.36;102370.56;4983410;28;20039;-70
2023/04/09 09:33:50;;;;;;;16.90;10.30;;;;;;;13.53;54.41;102371.50;4997933;28;20819;-69
2023/04/09 09:36:34;;;;;;;14.77;10.75;;;;;;;13.61;54.77;102366.06;4983585;28;20097;-69
2023/04/09 09:39:08;;;;;;;14.43;10.63;;;;;;;13.66;54.80;102373.03;4982543;28;20045;-69
2023/04/09 09:41:37;;;;;;;14.77;10.20;;;;;;;13.74;53.09;102366.69;5001889;28;20038;-69
2023/04/09 09:44:06;;;;;;;19.17;12.02;;;;;;;13.75;53.73;102366.66;4988223;28;20039;-69
2023/04/09 09:46:37;;;;;;;16.17;10.65;;;;;;;13.75;53.61;102368.44;4993231;28;20569;-68
2023/04/09 09:49:05;;;;;;;16.58;10.27;;;;;;;13.76;55.54;102360.47;4980036;28;20045;-69
2023/04/09 09:51:36;;;;;;;14.45;10.05;;;;;;;13.88;53.79;102362.00;4969951;28;20043;-70
2023/04/09 09:54:06;;;;;;;16.08;9.98;;;;;;;13.97;52.26;102353.88;4989221;28;20035;-69
2023/04/09 09:56:38;;;;;;;15.75;10.07;;;;;;;14.01;52.13;102356.44;4991865;28;20043;-69
2023/04/09 09:59:23;;;;;;;14.23;9.45;;;;;;;14.05;53.59;102348.38;4980223;28;20042;-69
2023/04/09 10:02:00;;;;;;;12.82;9.48;;;;;;;14.20;51.75;102351.63;4982406;28;20042;-69
2023/04/09 10:04:32;;;;;;;15.70;10.02;;;;;;;14.23;51.92;102347.13;4983194;28;22207;-69
2023/04/09 10:07:04;;;;;;;14.00;10.05;;;;;;;14.28;50.97;102339.97;4985358;28;20117;-69
2023/04/09 10:09:36;;;;;;;15.02;10.38;;;;;;;14.14;51.98;102345.53;4970780;28;20161;-69
2023/04/09 10:12:06;;;;;;;13.65;9.30;;;;;;;14.19;52.17;102341.94;4993051;28;20038;-69
2023/04/09 10:14:34;;;;;;;12.93;8.82;;;;;;;14.03;51.46;102346.69;4996800;28;20514;-69
2023/04/09 10:17:03;;;;;;;15.73;9.85;;;;;;;13.92;52.17;102336.31;4995380;28;20039;-69
2023/04/09 10:19:37;;;;;;;13.55;8.80;;;;;;;13.86;51.52;102337.31;4997787;28;20495;-69
2023/04/09 10:22:09;;;;;;;;;;;;;;;13.91;49.47;102330.13;4976157;28;20046;-69
2023/04/09 10:24:36;;;;;;;11.65;7.93;;;;;;;13.84;51.29;102332.94;4996025;28;19936;-69
2023/04/09 10:27:15;;;;;;;11.52;8.32;;;;;;;13.81;51.97;102325.91;4981119;28;20049;-69
2023/04/09 10:29:50;;;;;;;10.60;6.97;;;;;;;13.74;51.37;102325.16;4996438;28;20054;-69
2023/04/09 10:32:22;;;;;;;10.02;6.40;;;;;;;13.90;51.37;102328.38;4996276;28;20573;-69
2023/04/09 10:34:49;;;;;;;8.68;5.97;;;;;;;13.97;49.67;102314.09;4990652;28;20078;-68
2023/04/09 10:37:27;;;;;;;8.68;5.60;;;;;;;14.14;46.90;102308.41;4989271;28;20081;-69
2023/04/09 10:39:56;;;;;;;10.90;6.28;;;;;;;14.21;48.21;102317.09;4976735;28;20605;-69
2023/04/09 10:42:36;;;;;;;8.35;5.55;;;;;;;14.39;49.71;102312.31;4976644;28;20052;-69
2023/04/09 10:45:13;;;;;;;8.60;5.90;;;;;;;14.51;48.27;102311.16;4993336;28;20117;-69
2023/04/09 10:47:42;;;;;;;9.25;5.70;;;;;;;14.56;48.48;102304.81;4988652;28;20042;-69
2023/04/09 10:50:16;;;;;;;8.75;5.97;;;;;;;14.65;47.76;102310.81;4990475;28;20558;-68
2023/04/09 10:52:46;;;;;;;9.30;6.00;;;;;;;14.62;48.70;102306.47;4986858;28;20062;-68
2023/04/09 10:55:34;;;;;;;11.73;6.60;;;;;;;14.68;49.23;102309.00;4973344;28;20047;-68
2023/04/09 10:58:04;;;;;;;10.13;6.88;;;;;;;14.80;46.24;102302.53;4989521;28;20066;-68
2023/04/09 11:00:36;;;;;;;11.52;7.55;;;;;;;14.67;45.69;102301.09;4985846;28;20047;-69
2023/04/09 11:03:24;;;;;;;11.40;7.50;;;;;;;14.64;47.82;102298.47;4983879;28;20045;-69
2023/04/09 11:06:01;;;;;;;11.15;7.95;;;;;;;14.63;48.75;102296.72;4984866;28;20042;-70
2023/04/09 11:08:32;;;;;;;11.02;7.90;;;;;;;14.72;46.31;102296.50;4982140;28;20511;-69
2023/04/09 11:11:01;;;;;;;10.57;7.20;;;;;;;14.70;47.01;102279.78;5001948;28;20153;-69
2023/04/09 11:13:31;;;;;;;10.60;7.30;;;;;;;14.84;46.36;102290.91;4983427;28;20098;-68
2023/04/09 11:16:00;;;;;;;12.20;7.53;;;;;;;14.84;45.24;102285.59;4988039;28;20045;-69
2023/04/09 11:18:29;;;;;;;19.38;7.90;;;;;;;14.83;46.80;102286.50;4986371;28;20110;-69
2023/04/09 11:21:02;;;;;;;10.95;8.13;;;;;;;14.87;45.42;102288.19;4988507;28;20039;-69
2023/04/09 11:23:31;;;;;;;11.25;7.70;;;;;;;14.87;46.40;102282.88;4967736;28;20039;-69
2023/04/09 11:25:58;;;;;;;11.27;7.47;;;;;;;14.80;45.55;102278.63;4992237;28;20035;-69
2023/04/09 11:28:26;;;;;;;9.52;7.05;;;;;;;14.85;44.70;102281.19;4976421;28;20122;-69
2023/04/09 11:30:53;;;;;;;11.70;8.07;;;;;;;14.82;45.06;102273.28;4996628;28;20038;-69